createdAt,value
2019-05-29T00:00:39.173Z,1.07
2019-05-29T00:03:08.336Z,1.10
2019-05-29T00:05:37.069Z,1.10
2019-05-29T00:08:06.362Z,1.37
2019-05-29T00:10:35.360Z,1.27
2019-05-29T00:13:04.481Z,1.03
2019-05-29T00:15:33.407Z,1.03
2019-05-29T00:18:02.100Z,0.90
2019-05-29T00:20:30.961Z,1.17
2019-05-29T00:22:59.656Z,1.20
2019-05-29T00:25:28.244Z,1.10
2019-05-29T00:27:57.030Z,1.00
2019-05-29T00:30:25.788Z,1.30
2019-05-29T00:32:54.516Z,1.13
2019-05-29T00:35:23.296Z,1.23
2019-05-29T00:37:51.934Z,1.00
2019-05-29T00:40:20.994Z,1.10
2019-05-29T00:42:49.855Z,1.40
2019-05-29T00:45:18.982Z,1.20
2019-05-29T00:47:47.697Z,1.30
2019-05-29T00:50:16.781Z,1.40
2019-05-29T00:52:45.816Z,1.33
2019-05-29T00:55:15.030Z,1.57
2019-05-29T00:57:43.738Z,1.33
2019-05-29T01:00:13.268Z,1.60
2019-05-29T01:02:42.095Z,1.80
2019-05-29T01:05:12.015Z,1.47
2019-05-29T01:07:41.216Z,1.60
2019-05-29T01:10:10.611Z,1.60
2019-05-29T01:12:39.545Z,1.50
2019-05-29T01:15:08.678Z,1.70
2019-05-29T01:17:37.340Z,1.63
2019-05-29T01:20:07.830Z,1.70
2019-05-29T01:22:36.484Z,1.80
2019-05-29T01:25:06.728Z,1.30
2019-05-29T01:27:35.432Z,1.67
2019-05-29T01:30:04.992Z,1.47
2019-05-29T01:32:33.746Z,1.43
2019-05-29T01:35:02.717Z,1.30
2019-05-29T01:37:31.426Z,1.47
2019-05-29T01:40:00.049Z,1.80
2019-05-29T01:42:28.642Z,1.53
2019-05-29T01:45:07.067Z,1.60
2019-05-29T01:47:28.125Z,1.43
2019-05-29T01:49:57.126Z,1.40
2019-05-29T01:52:25.737Z,1.50
2019-05-29T01:54:54.593Z,1.40
2019-05-29T01:57:23.822Z,1.30
2019-05-29T01:59:52.886Z,1.40
2019-05-29T02:02:21.978Z,1.20
2019-05-29T02:04:51.112Z,1.40
2019-05-29T02:07:20.004Z,1.27
2019-05-29T02:09:48.857Z,1.27
2019-05-29T02:12:19.339Z,1.20
2019-05-29T02:14:48.232Z,1.20
2019-05-29T02:17:17.796Z,1.23
2019-05-29T02:19:46.734Z,1.20
2019-05-29T02:22:15.408Z,1.20
2019-05-29T02:24:44.058Z,1.70
2019-05-29T02:27:12.789Z,1.60
2019-05-29T02:29:41.567Z,1.40
2019-05-29T02:32:10.731Z,1.27
2019-05-29T02:34:39.456Z,1.40
2019-05-29T02:37:08.338Z,1.33
2019-05-29T02:39:36.972Z,1.40
2019-05-29T02:42:06.031Z,1.20
2019-05-29T02:44:35.003Z,1.30
2019-05-29T02:47:03.700Z,1.30
2019-05-29T02:49:32.380Z,1.40
2019-05-29T02:52:01.682Z,1.30
2019-05-29T02:54:32.287Z,1.20
2019-05-29T02:57:01.114Z,1.40
2019-05-29T02:59:31.757Z,1.37
2019-05-29T03:02:00.363Z,1.50
2019-05-29T03:04:30.311Z,1.37
2019-05-29T03:07:00.033Z,0.90
2019-05-29T03:09:30.555Z,1.40
2019-05-29T03:12:00.421Z,1.30
2019-05-29T03:14:31.168Z,1.50
2019-05-29T03:16:59.991Z,1.43
2019-05-29T03:19:30.320Z,1.30
2019-05-29T03:21:59.476Z,1.30
2019-05-29T03:24:28.719Z,1.30
2019-05-29T03:26:58.031Z,1.23
2019-05-29T03:29:28.144Z,1.37
2019-05-29T03:31:57.219Z,1.67
2019-05-29T03:34:28.474Z,1.17
2019-05-29T03:36:56.564Z,1.20
2019-05-29T03:39:26.321Z,1.10
2019-05-29T03:41:55.241Z,1.20
2019-05-29T03:44:24.102Z,1.10
2019-05-29T03:46:53.128Z,1.20
2019-05-29T03:49:21.848Z,1.30
2019-05-29T03:51:50.784Z,1.40
2019-05-29T03:54:19.535Z,1.40
2019-05-29T03:56:48.119Z,1.10
2019-05-29T03:59:16.890Z,1.00
2019-05-29T04:01:45.713Z,1.00
2019-05-29T04:04:14.456Z,1.20
2019-05-29T04:06:47.078Z,0.90
2019-05-29T04:09:13.497Z,0.90
2019-05-29T04:11:42.114Z,0.70
2019-05-29T04:14:11.177Z,1.17
2019-05-29T04:16:58.425Z,1.10
2019-05-29T04:19:12.258Z,1.10
2019-05-29T04:21:41.813Z,1.13
2019-05-29T04:24:10.626Z,1.00
2019-05-29T04:26:41.313Z,1.20
2019-05-29T04:29:10.585Z,1.37
2019-05-29T04:31:39.542Z,1.20
2019-05-29T04:34:08.416Z,1.37
2019-05-29T04:36:38.855Z,1.20
2019-05-29T04:39:07.463Z,1.20
2019-05-29T04:41:37.050Z,0.90
2019-05-29T04:44:06.473Z,1.00
2019-05-29T04:46:36.418Z,1.20
2019-05-29T04:49:05.865Z,1.10
2019-05-29T04:51:35.438Z,1.20
2019-05-29T04:54:04.512Z,1.00
2019-05-29T04:56:33.505Z,1.00
2019-05-29T04:59:02.204Z,1.10
2019-05-29T05:01:30.962Z,1.00
2019-05-29T05:03:59.666Z,1.00
2019-05-29T05:06:29.104Z,1.30
2019-05-29T05:08:58.076Z,1.10
2019-05-29T05:11:26.717Z,1.17
2019-05-29T05:13:55.644Z,1.20
2019-05-29T05:16:24.368Z,0.90
2019-05-29T05:18:53.412Z,0.80
2019-05-29T05:21:22.107Z,1.23
2019-05-29T05:23:50.911Z,1.03
2019-05-29T05:26:19.706Z,1.10
2019-05-29T05:28:48.468Z,1.30
2019-05-29T05:31:17.595Z,1.20
2019-05-29T05:33:46.312Z,1.10
2019-05-29T05:36:15.057Z,1.20
2019-05-29T05:38:43.751Z,1.10
2019-05-29T05:41:12.746Z,1.30
2019-05-29T05:43:41.878Z,1.30
2019-05-29T05:46:10.798Z,1.23
2019-05-29T05:48:39.416Z,1.10
2019-05-29T05:51:08.540Z,1.20
2019-05-29T05:53:37.559Z,1.30
2019-05-29T05:56:06.285Z,1.40
2019-05-29T05:58:35.722Z,1.20
2019-05-29T06:01:04.525Z,1.43
2019-05-29T06:03:33.977Z,1.40
2019-05-29T06:06:02.965Z,1.60
2019-05-29T06:08:32.038Z,1.40
2019-05-29T06:11:00.780Z,1.40
2019-05-29T06:13:29.456Z,1.13
2019-05-29T06:15:58.064Z,1.37
2019-05-29T06:18:27.168Z,1.50
2019-05-29T06:20:56.178Z,1.30
2019-05-29T06:23:24.807Z,1.10
2019-05-29T06:25:53.684Z,1.20
2019-05-29T06:28:23.032Z,1.47
2019-05-29T06:30:52.016Z,1.20
2019-05-29T06:33:20.672Z,1.20
2019-05-29T06:35:49.724Z,1.10
2019-05-29T06:38:18.690Z,1.43
2019-05-29T06:40:47.312Z,1.50
2019-05-29T06:43:23.266Z,1.30
2019-05-29T06:45:52.368Z,1.60
2019-05-29T06:48:41.747Z,1.37
2019-05-29T06:50:57.433Z,1.30
2019-05-29T06:53:26.394Z,1.30
2019-05-29T06:55:56.600Z,1.20
2019-05-29T06:58:25.653Z,1.43
2019-05-29T07:00:54.450Z,1.23
2019-05-29T07:03:23.537Z,1.20
2019-05-29T07:05:52.937Z,1.10
2019-05-29T07:08:37.633Z,1.20
2019-05-29T07:10:52.334Z,0.87
2019-05-29T07:13:21.046Z,1.20
2019-05-29T07:15:50.158Z,1.17
2019-05-29T07:18:19.185Z,1.00
2019-05-29T07:20:48.326Z,1.00
2019-05-29T07:23:16.976Z,1.10
2019-05-29T07:25:46.133Z,1.20
2019-05-29T07:28:15.987Z,1.23
2019-05-29T07:30:54.426Z,1.17
2019-05-29T07:33:15.369Z,1.20
2019-05-29T07:35:44.097Z,1.00
2019-05-29T07:38:12.858Z,1.00
2019-05-29T07:40:42.625Z,1.27
2019-05-29T07:43:12.646Z,1.17
2019-05-29T07:45:42.163Z,1.23
2019-05-29T07:48:11.038Z,1.33
2019-05-29T07:50:40.129Z,1.60
2019-05-29T07:53:09.161Z,1.47
2019-05-29T07:55:38.456Z,1.37
2019-05-29T07:58:07.175Z,1.60
2019-05-29T08:00:56.374Z,1.50
2019-05-29T08:03:06.981Z,1.53
2019-05-29T08:05:35.742Z,1.60
2019-05-29T08:08:04.360Z,1.57
2019-05-29T08:10:33.079Z,1.83
2019-05-29T08:13:01.844Z,1.90
2019-05-29T08:15:30.611Z,1.80
2019-05-29T08:17:59.342Z,2.47
2019-05-29T08:20:28.057Z,2.17
2019-05-29T08:22:56.846Z,1.70
2019-05-29T08:25:25.606Z,1.83
2019-05-29T08:27:54.247Z,1.90
2019-05-29T08:30:22.945Z,2.10
2019-05-29T08:32:51.809Z,2.03
2019-05-29T08:35:20.487Z,2.30
2019-05-29T08:37:49.249Z,1.73
2019-05-29T08:40:18.492Z,2.10
2019-05-29T08:42:47.441Z,2.20
2019-05-29T08:45:17.703Z,1.93
2019-05-29T08:47:47.624Z,2.13
2019-05-29T08:50:18.987Z,2.00
2019-05-29T08:52:48.079Z,2.30
2019-05-29T08:55:17.078Z,2.10
2019-05-29T08:57:46.313Z,1.90
2019-05-29T09:00:16.039Z,2.40
2019-05-29T09:02:44.801Z,2.30
2019-05-29T09:05:13.475Z,2.07
2019-05-29T09:07:43.379Z,2.30
2019-05-29T09:10:12.499Z,2.33
2019-05-29T09:12:41.136Z,2.10
2019-05-29T09:15:10.868Z,2.13
2019-05-29T09:17:39.721Z,2.40
2019-05-29T09:20:25.468Z,2.83
2019-05-29T09:22:39.457Z,2.30
2019-05-29T09:25:08.552Z,2.40
2019-05-29T09:27:37.437Z,2.23
2019-05-29T09:30:06.690Z,2.37
2019-05-29T09:32:49.648Z,2.00
2019-05-29T09:35:06.131Z,2.20
2019-05-29T09:37:34.876Z,2.10
2019-05-29T09:40:03.933Z,2.00
2019-05-29T09:42:32.819Z,1.70
2019-05-29T09:45:01.615Z,1.70
2019-05-29T09:47:30.267Z,1.80
2019-05-29T09:49:58.957Z,1.83
2019-05-29T09:52:30.606Z,2.00
2019-05-29T09:54:58.347Z,2.07
2019-05-29T09:57:27.271Z,2.40
2019-05-29T09:59:57.987Z,1.90
2019-05-29T10:02:26.205Z,2.20
2019-05-29T10:04:56.159Z,2.30
2019-05-29T10:07:25.287Z,2.20
2019-05-29T10:09:55.643Z,2.27
2019-05-29T10:12:24.719Z,2.30
2019-05-29T10:14:53.657Z,2.23
2019-05-29T10:17:23.909Z,2.17
2019-05-29T10:19:52.660Z,2.23
2019-05-29T10:22:21.338Z,2.23
2019-05-29T10:24:50.094Z,2.67
2019-05-29T10:27:18.865Z,2.23
2019-05-29T10:32:18.281Z,2.10
2019-05-29T10:32:52.797Z,2.00
2019-05-29T10:34:48.391Z,2.20
2019-05-29T10:37:18.402Z,2.23
2019-05-29T10:39:48.794Z,2.20
2019-05-29T10:42:20.466Z,2.50
2019-05-29T10:44:49.113Z,2.00
2019-05-29T10:47:18.391Z,2.10
2019-05-29T10:49:47.645Z,2.50
2019-05-29T10:52:17.605Z,2.00
2019-05-29T10:54:46.547Z,2.60
2019-05-29T10:57:15.439Z,2.20
2019-05-29T10:59:44.602Z,2.10
2019-05-29T11:02:13.615Z,2.30
2019-05-29T11:04:42.440Z,2.10
2019-05-29T11:07:11.247Z,2.40
2019-05-29T11:09:44.670Z,1.90
2019-05-29T11:12:10.573Z,1.90
2019-05-29T11:14:39.181Z,1.90
2019-05-29T11:17:08.131Z,2.10
2019-05-29T11:19:36.806Z,1.50
2019-05-29T11:22:24.721Z,1.80
2019-05-29T11:24:35.994Z,1.80
2019-05-29T11:27:04.613Z,1.90
2019-05-29T11:29:33.316Z,2.00
2019-05-29T11:32:02.037Z,1.67
2019-05-29T11:34:30.812Z,1.97
2019-05-29T11:36:59.425Z,1.97
2019-05-29T11:39:28.262Z,1.50
2019-05-29T11:41:57.092Z,1.40
2019-05-29T11:44:25.942Z,2.20
2019-05-29T11:46:56.101Z,1.77
2019-05-29T11:49:25.178Z,1.50
2019-05-29T11:52:16.991Z,1.90
2019-05-29T11:54:24.504Z,2.37
2019-05-29T11:56:53.722Z,1.70
2019-05-29T11:59:23.869Z,1.67
2019-05-29T12:01:54.246Z,1.80
2019-05-29T12:04:26.630Z,1.90
2019-05-29T12:06:53.736Z,1.83
2019-05-29T12:09:31.907Z,2.53
2019-05-29T12:11:54.034Z,2.80
2019-05-29T12:14:23.590Z,2.50
2019-05-29T12:16:53.903Z,2.63
2019-05-29T12:19:22.811Z,2.03
2019-05-29T12:21:52.323Z,2.10
2019-05-29T12:24:21.145Z,2.07
2019-05-29T12:26:50.067Z,2.00
2019-05-29T12:29:18.757Z,2.47
2019-05-29T12:31:47.836Z,2.17
2019-05-29T12:34:19.322Z,2.47
2019-05-29T12:36:47.138Z,2.80
2019-05-29T12:39:16.246Z,2.33
2019-05-29T12:41:44.952Z,2.47
2019-05-29T12:44:13.673Z,2.37
2019-05-29T12:46:42.300Z,2.40
2019-05-29T12:49:11.152Z,2.80
2019-05-29T12:51:39.908Z,2.50
2019-05-29T12:54:08.652Z,2.37
2019-05-29T12:56:37.315Z,2.30
2019-05-29T12:59:06.188Z,2.40
2019-05-29T13:01:34.830Z,2.60
2019-05-29T13:04:04.718Z,2.50
2019-05-29T13:06:34.066Z,2.90
2019-05-29T13:09:03.007Z,2.70
2019-05-29T13:11:31.670Z,2.20
2019-05-29T13:14:00.627Z,2.20
2019-05-29T13:16:29.838Z,1.90
2019-05-29T13:18:59.130Z,2.20
2019-05-29T13:21:28.150Z,2.20
2019-05-29T13:23:59.742Z,2.20
2019-05-29T13:26:27.124Z,2.00
2019-05-29T13:28:57.442Z,2.30
2019-05-29T13:31:26.402Z,2.20
2019-05-29T13:33:55.632Z,2.20
2019-05-29T13:36:24.594Z,2.20
2019-05-29T13:38:53.286Z,2.30
2019-05-29T13:41:22.010Z,2.20
2019-05-29T13:43:50.694Z,2.10
2019-05-29T13:46:19.403Z,2.37
2019-05-29T13:48:48.064Z,2.00
2019-05-29T13:51:16.812Z,2.33
2019-05-29T13:54:01.923Z,1.87
2019-05-29T13:56:16.442Z,2.10
2019-05-29T13:58:45.430Z,1.87
2019-05-29T14:01:14.188Z,2.10
2019-05-29T14:03:43.188Z,1.83
2019-05-29T14:06:12.097Z,1.70
2019-05-29T14:08:40.951Z,1.50
2019-05-29T14:11:09.793Z,1.40
2019-05-29T14:13:38.624Z,1.50
2019-05-29T14:16:08.409Z,1.40
2019-05-29T14:18:37.712Z,1.27
2019-05-29T14:21:07.327Z,1.20
2019-05-29T14:23:39.313Z,1.37
2019-05-29T14:26:07.029Z,1.30
2019-05-29T14:28:35.827Z,1.43
2019-05-29T14:31:05.863Z,1.30
2019-05-29T14:33:34.760Z,1.20
2019-05-29T14:36:03.669Z,1.10
2019-05-29T14:38:32.471Z,1.20
2019-05-29T14:41:01.746Z,1.20
2019-05-29T14:43:30.645Z,1.10
2019-05-29T14:45:59.339Z,1.20
2019-05-29T14:48:28.242Z,0.90
2019-05-29T14:50:57.127Z,1.10
2019-05-29T14:53:25.894Z,1.30
2019-05-29T14:55:54.835Z,1.20
2019-05-29T14:58:23.476Z,1.10
2019-05-29T15:00:52.254Z,0.90
2019-05-29T15:03:20.913Z,1.20
2019-05-29T15:05:49.735Z,1.50
2019-05-29T15:08:18.753Z,1.30
2019-05-29T15:10:47.351Z,1.43
2019-05-29T15:13:16.162Z,1.47
2019-05-29T15:15:44.850Z,1.33
2019-05-29T15:18:18.316Z,1.50
2019-05-29T15:20:44.119Z,1.47
2019-05-29T15:23:13.496Z,1.40
2019-05-29T15:25:42.665Z,1.70
2019-05-29T15:28:13.685Z,1.37
2019-05-29T15:30:41.905Z,1.50
2019-05-29T15:33:10.972Z,1.60
2019-05-29T15:35:39.855Z,1.80
2019-05-29T15:38:08.750Z,1.57
2019-05-29T15:40:37.914Z,1.73
2019-05-29T15:43:06.654Z,1.67
2019-05-29T15:45:35.547Z,1.70
2019-05-29T15:48:04.548Z,1.60
2019-05-29T15:50:33.260Z,1.60
2019-05-29T15:53:01.996Z,1.50
2019-05-29T15:55:34.544Z,1.47
2019-05-29T15:58:01.311Z,1.30
2019-05-29T16:00:30.043Z,1.33
2019-05-29T16:02:58.854Z,1.40
2019-05-29T16:05:27.958Z,2.80
2019-05-29T16:07:56.754Z,1.90
2019-05-29T16:10:25.606Z,1.57
2019-05-29T16:12:54.217Z,1.60
2019-05-29T16:15:23.037Z,1.40
2019-05-29T16:17:51.599Z,1.30
2019-05-29T16:20:22.716Z,1.60
2019-05-29T16:22:51.639Z,1.57
2019-05-29T16:25:38.745Z,1.50
2019-05-29T16:27:51.519Z,1.87
2019-05-29T16:30:21.782Z,1.60
2019-05-29T16:32:50.794Z,1.50
2019-05-29T16:35:19.815Z,1.70
2019-05-29T16:37:48.979Z,1.60
2019-05-29T16:40:18.342Z,1.40
2019-05-29T16:42:47.343Z,1.70
2019-05-29T16:45:16.502Z,1.50
2019-05-29T16:47:45.270Z,1.60
2019-05-29T16:50:17.248Z,1.30
2019-05-29T16:52:46.347Z,1.20
2019-05-29T16:55:17.255Z,1.70
2019-05-29T16:57:46.112Z,1.77
2019-05-29T17:00:17.570Z,1.53
2019-05-29T17:02:46.496Z,1.80
2019-05-29T17:05:15.792Z,1.70
2019-05-29T17:07:44.634Z,1.80
2019-05-29T17:10:14.362Z,1.63
2019-05-29T17:12:43.229Z,1.50
2019-05-29T17:15:12.205Z,1.50
2019-05-29T17:17:40.807Z,1.40
2019-05-29T17:20:09.967Z,1.70
2019-05-29T17:22:38.793Z,1.57
2019-05-29T17:25:07.830Z,1.90
2019-05-29T17:27:36.598Z,1.53
2019-05-29T17:30:05.630Z,1.87
2019-05-29T17:32:34.568Z,2.03
2019-05-29T17:35:03.397Z,1.90
2019-05-29T17:37:32.180Z,1.60
2019-05-29T17:40:00.946Z,2.00
2019-05-29T17:42:29.730Z,2.10
2019-05-29T17:44:58.322Z,2.23
2019-05-29T17:47:27.050Z,2.37
2019-05-29T17:49:55.762Z,2.30
2019-05-29T17:52:24.508Z,2.00
2019-05-29T17:54:53.118Z,2.23
2019-05-29T17:57:22.113Z,2.47
2019-05-29T17:59:51.064Z,2.63
2019-05-29T18:02:20.238Z,2.57
2019-05-29T18:04:49.172Z,2.60
2019-05-29T18:07:18.365Z,2.20
2019-05-29T18:09:47.247Z,2.67
2019-05-29T18:12:17.137Z,2.47
2019-05-29T18:14:46.389Z,2.20
2019-05-29T18:17:15.088Z,2.70
2019-05-29T18:19:44.032Z,2.80
2019-05-29T18:22:13.111Z,3.07
2019-05-29T18:24:41.838Z,3.00
2019-05-29T18:27:10.758Z,2.57
2019-05-29T18:29:39.838Z,2.90
2019-05-29T18:32:08.587Z,2.80
2019-05-29T18:34:37.299Z,3.27
2019-05-29T18:37:05.913Z,3.20
2019-05-29T18:39:34.950Z,3.50
2019-05-29T18:42:03.960Z,3.23
2019-05-29T18:44:33.053Z,3.30
2019-05-29T18:47:02.020Z,3.30
2019-05-29T18:49:30.749Z,3.00
2019-05-29T18:52:00.394Z,3.20
2019-05-29T18:54:29.996Z,3.37
2019-05-29T18:57:14.407Z,3.37
2019-05-29T18:59:29.709Z,3.40
2019-05-29T19:01:58.346Z,4.10
2019-05-29T19:04:27.611Z,3.80
2019-05-29T19:06:56.518Z,3.60
2019-05-29T19:09:25.680Z,3.27
2019-05-29T19:11:54.588Z,3.20
2019-05-29T19:14:24.028Z,3.50
2019-05-29T19:16:53.174Z,3.77
2019-05-29T19:19:22.078Z,3.60
2019-05-29T19:21:50.915Z,3.90
2019-05-29T19:24:19.952Z,3.80
2019-05-29T19:26:48.617Z,3.93
2019-05-29T19:29:17.425Z,3.70
2019-05-29T19:31:46.163Z,3.60
2019-05-29T19:34:14.897Z,3.80
2019-05-29T19:36:43.827Z,4.40
2019-05-29T19:39:12.444Z,3.83
2019-05-29T19:41:41.327Z,3.80
2019-05-29T19:44:10.032Z,4.20
2019-05-29T19:46:53.099Z,4.13
2019-05-29T19:49:09.404Z,4.07
2019-05-29T19:51:38.376Z,4.00
2019-05-29T19:54:07.085Z,4.30
2019-05-29T19:56:35.996Z,4.23
2019-05-29T19:59:05.020Z,4.40
2019-05-29T20:01:37.562Z,4.60
2019-05-29T20:04:04.363Z,4.53
2019-05-29T20:06:33.194Z,4.50
2019-05-29T20:09:02.061Z,4.37
2019-05-29T20:11:31.603Z,4.50
2019-05-29T20:14:00.626Z,4.57
2019-05-29T20:16:30.076Z,4.50
2019-05-29T20:18:58.779Z,4.50
2019-05-29T20:21:28.517Z,4.30
2019-05-29T20:23:57.463Z,4.07
2019-05-29T20:26:26.154Z,4.00
2019-05-29T20:28:54.775Z,4.00
2019-05-29T20:31:23.427Z,3.63
2019-05-29T20:33:52.787Z,3.97
2019-05-29T20:36:21.515Z,3.97
2019-05-29T20:38:50.195Z,3.97
2019-05-29T20:41:18.865Z,5.33
2019-05-29T20:43:47.547Z,4.40
2019-05-29T20:46:16.277Z,3.93
2019-05-29T20:48:45.081Z,3.57
2019-05-29T20:51:13.891Z,4.23
2019-05-29T20:53:42.471Z,4.13
2019-05-29T20:56:11.281Z,4.00
2019-05-29T20:58:40.083Z,4.23
2019-05-29T21:01:08.725Z,4.10
2019-05-29T21:03:38.635Z,4.20
2019-05-29T21:06:07.473Z,3.90
2019-05-29T21:08:36.903Z,3.67
2019-05-29T21:11:06.005Z,4.37
2019-05-29T21:13:35.380Z,3.77
2019-05-29T21:16:04.495Z,4.10
2019-05-29T21:18:33.816Z,4.23
2019-05-29T21:21:02.653Z,3.80
2019-05-29T21:23:31.378Z,3.60
2019-05-29T21:26:00.142Z,4.00
2019-05-29T21:28:39.648Z,4.00
2019-05-29T21:30:59.367Z,4.27
2019-05-29T21:33:27.972Z,4.00
2019-05-29T21:35:56.734Z,4.40
2019-05-29T21:38:25.536Z,4.00
2019-05-29T21:40:54.271Z,3.63
2019-05-29T21:43:23.040Z,4.20
2019-05-29T21:45:51.912Z,3.87
2019-05-29T21:48:20.539Z,3.90
2019-05-29T21:50:49.357Z,3.90
2019-05-29T21:53:18.355Z,3.80
2019-05-29T21:55:47.827Z,3.70
2019-05-29T21:58:16.951Z,3.90
2019-05-29T22:00:51.028Z,3.90
2019-05-29T22:03:20.785Z,3.30
2019-05-29T22:05:49.772Z,4.17
2019-05-29T22:08:18.834Z,3.90
2019-05-29T22:10:47.449Z,4.10
2019-05-29T22:13:16.213Z,4.67
2019-05-29T22:15:45.316Z,4.43
2019-05-29T22:18:13.937Z,6.90
2019-05-29T22:20:42.924Z,9.00
2019-05-29T22:23:12.087Z,6.73
2019-05-29T22:25:42.442Z,6.50
2019-05-29T22:28:11.507Z,5.90
2019-05-29T22:30:40.276Z,5.90
2019-05-29T22:33:08.920Z,6.83
2019-05-29T22:35:38.152Z,6.30
2019-05-29T22:38:06.928Z,6.53
2019-05-29T22:40:35.644Z,5.60
2019-05-29T22:43:04.326Z,5.87
2019-05-29T22:45:33.086Z,6.03
2019-05-29T22:48:02.285Z,6.00
2019-05-29T22:50:31.548Z,6.07
2019-05-29T22:53:00.276Z,7.40
2019-05-29T22:55:29.004Z,8.33
2019-05-29T22:57:57.969Z,9.57
2019-05-29T23:00:27.062Z,10.70
2019-05-29T23:02:56.160Z,10.17
2019-05-29T23:05:25.152Z,6.30
2019-05-29T23:07:54.209Z,6.30
2019-05-29T23:10:23.228Z,8.87
2019-05-29T23:12:52.933Z,8.30
2019-05-29T23:15:22.040Z,7.77
2019-05-29T23:17:52.318Z,7.23
2019-05-29T23:20:21.380Z,6.53
2019-05-29T23:22:50.071Z,5.90
2019-05-29T23:25:18.720Z,5.93
2019-05-29T23:27:47.371Z,6.57
2019-05-29T23:30:16.244Z,6.30
2019-05-29T23:32:44.974Z,6.23
2019-05-29T23:35:13.691Z,6.20
2019-05-29T23:37:42.422Z,6.90
2019-05-29T23:40:11.003Z,6.80
2019-05-29T23:42:39.686Z,6.53
2019-05-29T23:45:08.790Z,6.67
2019-05-29T23:47:37.836Z,6.20
2019-05-29T23:50:06.895Z,6.53
2019-05-29T23:52:35.687Z,7.20
2019-05-29T23:55:04.809Z,7.47
2019-05-29T23:57:33.574Z,6.60
